createdAt,value
2016-04-29T00:00:33.380Z,0
2016-04-29T00:01:32.336Z,0
2016-04-29T00:02:32.291Z,0
2016-04-29T00:03:32.263Z,0
2016-04-29T00:04:32.250Z,0
2016-04-29T00:05:32.205Z,0
2016-04-29T00:06:32.177Z,0
2016-04-29T00:07:32.148Z,0
2016-04-29T00:08:32.119Z,0
2016-04-29T00:09:32.091Z,0
2016-04-29T00:10:32.079Z,0
2016-04-29T00:11:32.019Z,0
2016-04-29T00:12:32.004Z,0
2016-04-29T00:13:31.976Z,0
2016-04-29T00:14:31.878Z,0
2016-04-29T00:15:32.123Z,0
2016-04-29T00:16:32.025Z,0
2016-04-29T00:17:32.036Z,0
2016-04-29T00:18:32.039Z,0
2016-04-29T00:19:32.009Z,0
2016-04-29T00:20:32.009Z,0
2016-04-29T00:21:31.981Z,0
2016-04-29T00:22:31.965Z,0
2016-04-29T00:23:31.964Z,0
2016-04-29T00:24:31.925Z,0
2016-04-29T00:25:31.901Z,0
2016-04-29T00:26:31.877Z,0
2016-04-29T00:27:31.853Z,0
2016-04-29T00:28:31.829Z,0
2016-04-29T00:29:32.021Z,0
2016-04-29T00:30:31.775Z,0
2016-04-29T00:31:31.749Z,0
2016-04-29T00:32:31.737Z,0
2016-04-29T00:33:31.680Z,0
2016-04-29T00:34:31.667Z,0
2016-04-29T00:35:31.624Z,0
2016-04-29T00:36:31.596Z,0
2016-04-29T00:37:31.584Z,0
2016-04-29T00:38:31.556Z,0
2016-04-29T00:39:31.545Z,0
2016-04-29T00:40:31.484Z,0
2016-04-29T00:41:31.456Z,0
2016-04-29T00:42:31.443Z,0
2016-04-29T00:43:31.399Z,0
2016-04-29T18:19:21.781Z,948
2016-04-29T18:20:21.925Z,976
2016-04-29T18:21:21.897Z,992
2016-04-29T18:22:21.869Z,956
2016-04-29T18:23:21.825Z,868
2016-04-29T18:24:21.812Z,748
2016-04-29T18:25:21.799Z,652
2016-04-29T22:35:29.918Z,0
2016-04-29T22:35:58.387Z,0
2016-04-29T22:36:58.514Z,0
2016-04-29T22:37:58.486Z,0
2016-04-29T22:38:58.457Z,0
2016-04-29T22:39:58.429Z,0
2016-04-29T22:40:58.401Z,0
2016-04-29T22:41:58.388Z,0
2016-04-29T22:42:58.359Z,0
2016-04-29T22:43:58.330Z,0
2016-04-29T22:44:58.317Z,0
2016-04-29T22:45:58.132Z,0
2016-04-29T22:46:58.260Z,0
2016-04-29T22:47:58.232Z,0
2016-04-29T22:48:58.203Z,0
2016-04-29T22:49:58.174Z,0
2016-04-29T22:50:58.161Z,0
2016-04-29T22:51:58.133Z,0
2016-04-29T22:52:57.948Z,0
2016-04-29T22:53:57.919Z,0
2016-04-29T22:54:58.064Z,0
2016-04-29T22:55:58.035Z,0
2016-04-29T22:56:58.005Z,0
2016-04-29T22:57:57.978Z,0
2016-04-29T22:58:57.949Z,0
2016-04-29T22:59:57.936Z,0
2016-04-29T23:00:57.908Z,0
2016-04-29T23:01:57.879Z,0
2016-04-29T23:02:57.850Z,0
2016-04-29T23:03:59.196Z,0
2016-04-29T23:04:57.652Z,0
2016-04-29T23:05:57.780Z,0
2016-04-29T23:06:57.768Z,0
2016-04-29T23:07:57.582Z,0
2016-04-29T23:08:57.709Z,0
2016-04-29T23:09:57.541Z,0
2016-04-29T23:10:57.654Z,0
2016-04-29T23:11:57.484Z,0
2016-04-29T23:12:57.612Z,0
2016-04-29T23:13:57.584Z,0
2016-04-29T23:14:57.258Z,0
2016-04-29T23:15:57.526Z,0
2016-04-29T23:16:57.514Z,0
2016-04-29T23:17:57.172Z,0
2016-04-29T23:18:57.362Z,0
2016-04-29T23:19:57.427Z,0
2016-04-29T23:20:57.258Z,0
2016-04-29T23:21:57.386Z,0
2016-04-29T23:22:57.372Z,0
2016-04-29T23:23:57.345Z,0
2016-04-29T23:24:57.300Z,0
2016-04-29T23:25:57.271Z,0
2016-04-29T23:26:57.274Z,0
2016-04-29T23:27:57.230Z,0
2016-04-29T23:28:57.202Z,0
2016-04-29T23:29:57.189Z,0
2016-04-29T23:30:57.004Z,0
2016-04-29T23:31:57.132Z,0
2016-04-29T23:32:56.963Z,0
2016-04-29T23:33:57.090Z,0
2016-04-29T23:34:57.062Z,0
2016-04-29T23:35:57.033Z,0
2016-04-29T23:36:57.020Z,0
2016-04-29T23:37:56.991Z,0
2016-04-29T23:38:56.962Z,0
2016-04-29T23:39:56.934Z,0
2016-04-29T23:40:56.921Z,0
2016-04-29T23:41:56.876Z,0
2016-04-29T23:42:56.864Z,0
2016-04-29T23:43:56.836Z,0
2016-04-29T23:44:56.651Z,0
2016-04-29T23:45:56.778Z,0
2016-04-29T23:46:56.765Z,0
2016-04-29T23:47:56.737Z,0
2016-04-29T23:48:56.725Z,0
2016-04-29T23:49:56.681Z,0
2016-04-29T23:50:56.495Z,0
2016-04-29T23:51:56.483Z,0
2016-04-29T23:52:56.610Z,0
2016-04-29T23:53:56.581Z,0
2016-04-29T23:54:56.553Z,0
2016-04-29T23:55:56.539Z,0
2016-04-29T23:56:56.511Z,0
2016-04-29T23:57:56.482Z,0
2016-04-29T23:58:56.454Z,0
2016-04-29T23:59:56.285Z,0
